sensor_id;sensor_type;location;lat;lon;timestamp;P1;durP1;ratioP1;P2;durP2;ratioP2
7338;SDS011;33747;49.524;8.390;2022-09-01T00:01:33;4.05;;;3.38;;
7338;SDS011;33747;49.524;8.390;2022-09-01T00:04:01;3.65;;;3.35;;
7338;SDS011;33747;49.524;8.390;2022-09-01T00:06:28;4.13;;;3.80;;
7338;SDS011;33747;49.524;8.390;2022-09-01T00:08:58;8.73;;;3.85;;
7338;SDS011;33747;49.524;8.390;2022-09-01T00:11:26;5.20;;;3.85;;
7338;SDS011;33747;49.524;8.390;2022-09-01T00:13:52;4.72;;;3.25;;
7338;SDS011;33747;49.524;8.390;2022-09-01T00:16:19;4.28;;;3.58;;
7338;SDS011;33747;49.524;8.390;2022-09-01T00:18:45;4.60;;;3.75;;
7338;SDS011;33747;49.524;8.390;2022-09-01T00:21:16;4.65;;;3.78;;
7338;SDS011;33747;49.524;8.390;2022-09-01T00:23:42;5.63;;;3.65;;
7338;SDS011;33747;49.524;8.390;2022-09-01T00:26:08;6.35;;;3.72;;
7338;SDS011;33747;49.524;8.390;2022-09-01T00:28:34;5.55;;;3.67;;
7338;SDS011;33747;49.524;8.390;2022-09-01T00:31:00;7.75;;;3.70;;
7338;SDS011;33747;49.524;8.390;2022-09-01T00:33:26;7.82;;;3.70;;
7338;SDS011;33747;49.524;8.390;2022-09-01T00:35:52;5.85;;;4.00;;
7338;SDS011;33747;49.524;8.390;2022-09-01T00:38:17;5.40;;;4.47;;
7338;SDS011;33747;49.524;8.390;2022-09-01T00:40:43;4.60;;;4.20;;
7338;SDS011;33747;49.524;8.390;2022-09-01T00:43:16;7.22;;;4.40;;
7338;SDS011;33747;49.524;8.390;2022-09-01T00:45:45;5.85;;;4.70;;
7338;SDS011;33747;49.524;8.390;2022-09-01T00:48:10;6.00;;;4.00;;
7338;SDS011;33747;49.524;8.390;2022-09-01T00:50:37;4.57;;;3.97;;
7338;SDS011;33747;49.524;8.390;2022-09-01T00:53:02;6.22;;;4.20;;
7338;SDS011;33747;49.524;8.390;2022-09-01T00:55:30;4.18;;;3.78;;
7338;SDS011;33747;49.524;8.390;2022-09-01T00:57:56;5.82;;;3.80;;
7338;SDS011;33747;49.524;8.390;2022-09-01T01:00:24;3.70;;;3.40;;
7338;SDS011;33747;49.524;8.390;2022-09-01T01:02:54;4.82;;;3.97;;
7338;SDS011;33747;49.524;8.390;2022-09-01T01:05:20;5.18;;;3.55;;
7338;SDS011;33747;49.524;8.390;2022-09-01T01:07:47;4.93;;;3.83;;
7338;SDS011;33747;49.524;8.390;2022-09-01T01:10:13;4.80;;;3.95;;
7338;SDS011;33747;49.524;8.390;2022-09-01T01:12:41;3.95;;;3.55;;
7338;SDS011;33747;49.524;8.390;2022-09-01T01:15:08;4.38;;;3.50;;
7338;SDS011;33747;49.524;8.390;2022-09-01T01:17:35;4.90;;;3.47;;
7338;SDS011;33747;49.524;8.390;2022-09-01T01:20:01;4.05;;;3.65;;
7338;SDS011;33747;49.524;8.390;2022-09-01T01:23:05;5.97;;;3.97;;
7338;SDS011;33747;49.524;8.390;2022-09-01T01:25:39;10.25;;;3.65;;
7338;SDS011;33747;49.524;8.390;2022-09-01T01:30:44;9.52;;;4.45;;
7338;SDS011;33747;49.524;8.390;2022-09-01T01:33:15;7.57;;;3.55;;
7338;SDS011;33747;49.524;8.390;2022-09-01T01:35:42;7.60;;;3.58;;
7338;SDS011;33747;49.524;8.390;2022-09-01T01:38:07;3.75;;;3.20;;
7338;SDS011;33747;49.524;8.390;2022-09-01T01:40:34;7.40;;;3.70;;
7338;SDS011;33747;49.524;8.390;2022-09-01T01:43:00;4.82;;;3.50;;
7338;SDS011;33747;49.524;8.390;2022-09-01T01:45:26;10.45;;;3.88;;
7338;SDS011;33747;49.524;8.390;2022-09-01T01:47:52;5.82;;;3.10;;
7338;SDS011;33747;49.524;8.390;2022-09-01T01:50:19;6.35;;;3.42;;
7338;SDS011;33747;49.524;8.390;2022-09-01T01:52:45;4.45;;;3.22;;
7338;SDS011;33747;49.524;8.390;2022-09-01T01:55:11;3.85;;;3.55;;
7338;SDS011;33747;49.524;8.390;2022-09-01T01:57:39;3.95;;;3.60;;
7338;SDS011;33747;49.524;8.390;2022-09-01T02:00:12;3.40;;;3.10;;
7338;SDS011;33747;49.524;8.390;2022-09-01T02:02:43;4.95;;;3.80;;
7338;SDS011;33747;49.524;8.390;2022-09-01T02:05:22;7.57;;;2.97;;
7338;SDS011;33747;49.524;8.390;2022-09-01T02:07:53;4.63;;;3.22;;
7338;SDS011;33747;49.524;8.390;2022-09-01T02:10:21;5.30;;;3.08;;
7338;SDS011;33747;49.524;8.390;2022-09-01T02:12:47;6.75;;;3.47;;
7338;SDS011;33747;49.524;8.390;2022-09-01T02:15:13;4.75;;;3.53;;
7338;SDS011;33747;49.524;8.390;2022-09-01T02:17:39;3.60;;;3.30;;
7338;SDS011;33747;49.524;8.390;2022-09-01T02:20:07;7.15;;;3.53;;
7338;SDS011;33747;49.524;8.390;2022-09-01T02:22:33;4.50;;;3.10;;
7338;SDS011;33747;49.524;8.390;2022-09-01T02:24:58;6.30;;;3.60;;
7338;SDS011;33747;49.524;8.390;2022-09-01T02:27:24;3.70;;;2.97;;
7338;SDS011;33747;49.524;8.390;2022-09-01T02:29:51;3.63;;;3.33;;
7338;SDS011;33747;49.524;8.390;2022-09-01T02:32:19;8.98;;;3.10;;
7338;SDS011;33747;49.524;8.390;2022-09-01T02:34:45;7.40;;;3.50;;
7338;SDS011;33747;49.524;8.390;2022-09-01T02:37:18;5.00;;;3.55;;
7338;SDS011;33747;49.524;8.390;2022-09-01T02:39:49;5.53;;;3.40;;
7338;SDS011;33747;49.524;8.390;2022-09-01T02:42:14;7.88;;;3.38;;
7338;SDS011;33747;49.524;8.390;2022-09-01T02:44:40;4.43;;;3.58;;
7338;SDS011;33747;49.524;8.390;2022-09-01T02:47:07;6.65;;;3.90;;
7338;SDS011;33747;49.524;8.390;2022-09-01T02:49:33;3.95;;;3.30;;
7338;SDS011;33747;49.524;8.390;2022-09-01T02:51:59;4.55;;;3.20;;
7338;SDS011;33747;49.524;8.390;2022-09-01T02:54:26;3.80;;;3.22;;
7338;SDS011;33747;49.524;8.390;2022-09-01T02:56:54;3.50;;;3.17;;
7338;SDS011;33747;49.524;8.390;2022-09-01T02:59:20;4.75;;;2.92;;
7338;SDS011;33747;49.524;8.390;2022-09-01T03:01:47;3.13;;;2.83;;
7338;SDS011;33747;49.524;8.390;2022-09-01T03:04:14;3.55;;;2.78;;
7338;SDS011;33747;49.524;8.390;2022-09-01T03:06:39;6.63;;;3.17;;
7338;SDS011;33747;49.524;8.390;2022-09-01T03:09:07;3.63;;;2.85;;
7338;SDS011;33747;49.524;8.390;2022-09-01T03:11:35;7.90;;;3.13;;
7338;SDS011;33747;49.524;8.390;2022-09-01T03:14:04;5.05;;;2.78;;
7338;SDS011;33747;49.524;8.390;2022-09-01T03:16:30;3.67;;;2.67;;
7338;SDS011;33747;49.524;8.390;2022-09-01T03:18:56;2.95;;;2.70;;
7338;SDS011;33747;49.524;8.390;2022-09-01T03:21:21;3.00;;;2.80;;
7338;SDS011;33747;49.524;8.390;2022-09-01T03:23:47;3.22;;;2.88;;
7338;SDS011;33747;49.524;8.390;2022-09-01T03:26:14;15.32;;;3.30;;
7338;SDS011;33747;49.524;8.390;2022-09-01T03:28:42;5.63;;;2.83;;
7338;SDS011;33747;49.524;8.390;2022-09-01T03:31:08;4.80;;;3.05;;
7338;SDS011;33747;49.524;8.390;2022-09-01T03:33:33;4.22;;;2.65;;
7338;SDS011;33747;49.524;8.390;2022-09-01T03:36:00;4.70;;;3.25;;
7338;SDS011;33747;49.524;8.390;2022-09-01T03:38:26;4.45;;;2.92;;
7338;SDS011;33747;49.524;8.390;2022-09-01T03:40:52;6.30;;;2.88;;
7338;SDS011;33747;49.524;8.390;2022-09-01T03:45:51;7.25;;;2.83;;
7338;SDS011;33747;49.524;8.390;2022-09-01T03:48:19;7.20;;;2.60;;
7338;SDS011;33747;49.524;8.390;2022-09-01T03:50:44;5.88;;;2.60;;
7338;SDS011;33747;49.524;8.390;2022-09-01T03:53:14;3.50;;;2.80;;
7338;SDS011;33747;49.524;8.390;2022-09-01T03:55:45;10.30;;;2.85;;
7338;SDS011;33747;49.524;8.390;2022-09-01T03:58:12;6.18;;;2.72;;
7338;SDS011;33747;49.524;8.390;2022-09-01T04:00:43;3.95;;;2.60;;
7338;SDS011;33747;49.524;8.390;2022-09-01T04:03:10;3.60;;;2.78;;
7338;SDS011;33747;49.524;8.390;2022-09-01T04:05:37;3.15;;;2.85;;
7338;SDS011;33747;49.524;8.390;2022-09-01T04:08:06;4.68;;;2.63;;
7338;SDS011;33747;49.524;8.390;2022-09-01T04:10:35;7.07;;;2.95;;
7338;SDS011;33747;49.524;8.390;2022-09-01T04:13:02;8.40;;;2.92;;
7338;SDS011;33747;49.524;8.390;2022-09-01T04:15:28;7.57;;;2.80;;
7338;SDS011;33747;49.524;8.390;2022-09-01T04:17:53;4.25;;;2.67;;
7338;SDS011;33747;49.524;8.390;2022-09-01T04:20:35;5.60;;;2.63;;
7338;SDS011;33747;49.524;8.390;2022-09-01T04:23:31;5.28;;;2.72;;
7338;SDS011;33747;49.524;8.390;2022-09-01T04:26:02;3.53;;;2.55;;
7338;SDS011;33747;49.524;8.390;2022-09-01T04:28:33;5.60;;;3.10;;
7338;SDS011;33747;49.524;8.390;2022-09-01T04:31:10;6.30;;;3.80;;
7338;SDS011;33747;49.524;8.390;2022-09-01T04:33:38;8.48;;;4.10;;
7338;SDS011;33747;49.524;8.390;2022-09-01T04:36:05;5.28;;;4.10;;
7338;SDS011;33747;49.524;8.390;2022-09-01T04:38:53;6.15;;;4.22;;
7338;SDS011;33747;49.524;8.390;2022-09-01T04:41:20;9.32;;;4.88;;
7338;SDS011;33747;49.524;8.390;2022-09-01T04:43:47;11.93;;;4.70;;
7338;SDS011;33747;49.524;8.390;2022-09-01T04:46:14;6.82;;;4.20;;
7338;SDS011;33747;49.524;8.390;2022-09-01T04:48:40;12.57;;;4.65;;
7338;SDS011;33747;49.524;8.390;2022-09-01T04:51:07;12.70;;;5.55;;
7338;SDS011;33747;49.524;8.390;2022-09-01T04:53:34;14.15;;;5.85;;
7338;SDS011;33747;49.524;8.390;2022-09-01T04:56:06;6.72;;;4.75;;
7338;SDS011;33747;49.524;8.390;2022-09-01T04:58:33;15.90;;;4.97;;
7338;SDS011;33747;49.524;8.390;2022-09-01T05:00:59;12.40;;;5.00;;
7338;SDS011;33747;49.524;8.390;2022-09-01T05:03:27;9.85;;;5.85;;
7338;SDS011;33747;49.524;8.390;2022-09-01T05:05:56;8.93;;;5.10;;
7338;SDS011;33747;49.524;8.390;2022-09-01T05:08:25;5.93;;;3.35;;
7338;SDS011;33747;49.524;8.390;2022-09-01T05:10:51;5.45;;;3.92;;
7338;SDS011;33747;49.524;8.390;2022-09-01T05:13:18;5.22;;;4.32;;
7338;SDS011;33747;49.524;8.390;2022-09-01T05:15:44;9.55;;;4.05;;
7338;SDS011;33747;49.524;8.390;2022-09-01T05:18:19;13.90;;;4.38;;
7338;SDS011;33747;49.524;8.390;2022-09-01T05:20:49;5.35;;;3.42;;
7338;SDS011;33747;49.524;8.390;2022-09-01T05:23:17;8.00;;;4.40;;
7338;SDS011;33747;49.524;8.390;2022-09-01T05:25:44;9.60;;;4.25;;
7338;SDS011;33747;49.524;8.390;2022-09-01T05:28:12;11.07;;;4.22;;
7338;SDS011;33747;49.524;8.390;2022-09-01T05:30:39;9.40;;;4.93;;
7338;SDS011;33747;49.524;8.390;2022-09-01T05:33:05;8.20;;;4.20;;
7338;SDS011;33747;49.524;8.390;2022-09-01T05:35:36;7.30;;;3.88;;
7338;SDS011;33747;49.524;8.390;2022-09-01T05:40:37;6.72;;;3.08;;
7338;SDS011;33747;49.524;8.390;2022-09-01T05:43:06;6.55;;;2.50;;
7338;SDS011;33747;49.524;8.390;2022-09-01T05:45:37;4.28;;;2.78;;
7338;SDS011;33747;49.524;8.390;2022-09-01T05:48:06;4.47;;;2.58;;
7338;SDS011;33747;49.524;8.390;2022-09-01T05:50:33;3.35;;;2.50;;
7338;SDS011;33747;49.524;8.390;2022-09-01T05:52:59;3.40;;;2.33;;
7338;SDS011;33747;49.524;8.390;2022-09-01T05:55:24;2.78;;;2.47;;
7338;SDS011;33747;49.524;8.390;2022-09-01T05:57:51;5.43;;;3.30;;
7338;SDS011;33747;49.524;8.390;2022-09-01T06:00:17;8.55;;;2.80;;
7338;SDS011;33747;49.524;8.390;2022-09-01T06:02:44;6.07;;;2.60;;
7338;SDS011;33747;49.524;8.390;2022-09-01T06:05:10;5.57;;;3.00;;
7338;SDS011;33747;49.524;8.390;2022-09-01T06:07:36;7.55;;;2.75;;
7338;SDS011;33747;49.524;8.390;2022-09-01T06:10:05;5.65;;;3.17;;
7338;SDS011;33747;49.524;8.390;2022-09-01T06:12:30;9.88;;;3.53;;
7338;SDS011;33747;49.524;8.390;2022-09-01T06:14:57;5.80;;;3.65;;
7338;SDS011;33747;49.524;8.390;2022-09-01T06:17:24;8.20;;;3.40;;
7338;SDS011;33747;49.524;8.390;2022-09-01T06:19:51;10.85;;;3.78;;
7338;SDS011;33747;49.524;8.390;2022-09-01T06:22:18;4.55;;;3.53;;
7338;SDS011;33747;49.524;8.390;2022-09-01T06:24:44;5.90;;;3.28;;
7338;SDS011;33747;49.524;8.390;2022-09-01T06:27:12;8.68;;;3.30;;
7338;SDS011;33747;49.524;8.390;2022-09-01T06:29:42;5.75;;;3.33;;
7338;SDS011;33747;49.524;8.390;2022-09-01T06:32:09;4.88;;;3.53;;
7338;SDS011;33747;49.524;8.390;2022-09-01T06:34:40;5.88;;;3.60;;
7338;SDS011;33747;49.524;8.390;2022-09-01T06:37:06;5.72;;;3.25;;
7338;SDS011;33747;49.524;8.390;2022-09-01T06:39:32;8.93;;;3.70;;
7338;SDS011;33747;49.524;8.390;2022-09-01T06:41:58;7.35;;;3.70;;
7338;SDS011;33747;49.524;8.390;2022-09-01T06:44:25;11.38;;;3.45;;
7338;SDS011;33747;49.524;8.390;2022-09-01T06:46:50;8.98;;;3.10;;
7338;SDS011;33747;49.524;8.390;2022-09-01T06:49:16;4.88;;;3.65;;
7338;SDS011;33747;49.524;8.390;2022-09-01T06:51:42;5.57;;;3.20;;
7338;SDS011;33747;49.524;8.390;2022-09-01T06:54:08;11.45;;;3.30;;
7338;SDS011;33747;49.524;8.390;2022-09-01T06:56:38;4.25;;;3.00;;
7338;SDS011;33747;49.524;8.390;2022-09-01T06:59:03;5.07;;;3.60;;
7338;SDS011;33747;49.524;8.390;2022-09-01T07:01:29;10.38;;;3.67;;
7338;SDS011;33747;49.524;8.390;2022-09-01T07:03:55;4.05;;;3.38;;
7338;SDS011;33747;49.524;8.390;2022-09-01T07:06:21;6.68;;;3.55;;
7338;SDS011;33747;49.524;8.390;2022-09-01T07:08:51;6.43;;;3.00;;
7338;SDS011;33747;49.524;8.390;2022-09-01T07:11:24;5.53;;;3.72;;
7338;SDS011;33747;49.524;8.390;2022-09-01T07:13:53;7.85;;;3.05;;
7338;SDS011;33747;49.524;8.390;2022-09-01T07:16:20;4.05;;;3.20;;
7338;SDS011;33747;49.524;8.390;2022-09-01T07:18:48;6.65;;;3.67;;
7338;SDS011;33747;49.524;8.390;2022-09-01T07:21:17;9.27;;;3.50;;
7338;SDS011;33747;49.524;8.390;2022-09-01T07:23:43;7.57;;;3.30;;
7338;SDS011;33747;49.524;8.390;2022-09-01T07:26:09;4.35;;;3.25;;
7338;SDS011;33747;49.524;8.390;2022-09-01T07:28:35;10.98;;;3.90;;
7338;SDS011;33747;49.524;8.390;2022-09-01T07:31:01;10.55;;;3.22;;
7338;SDS011;33747;49.524;8.390;2022-09-01T07:33:29;5.80;;;3.42;;
7338;SDS011;33747;49.524;8.390;2022-09-01T07:35:55;7.55;;;3.17;;
7338;SDS011;33747;49.524;8.390;2022-09-01T07:38:22;6.38;;;3.38;;
7338;SDS011;33747;49.524;8.390;2022-09-01T07:40:50;7.70;;;3.03;;
7338;SDS011;33747;49.524;8.390;2022-09-01T07:43:20;6.05;;;3.58;;
7338;SDS011;33747;49.524;8.390;2022-09-01T07:45:48;8.90;;;3.13;;
7338;SDS011;33747;49.524;8.390;2022-09-01T07:48:16;8.13;;;3.45;;
7338;SDS011;33747;49.524;8.390;2022-09-01T07:50:45;4.03;;;3.60;;
7338;SDS011;33747;49.524;8.390;2022-09-01T07:53:12;6.70;;;3.08;;
7338;SDS011;33747;49.524;8.390;2022-09-01T07:55:45;7.65;;;2.97;;
7338;SDS011;33747;49.524;8.390;2022-09-01T07:58:11;6.82;;;3.13;;
7338;SDS011;33747;49.524;8.390;2022-09-01T08:00:41;5.78;;;2.78;;
7338;SDS011;33747;49.524;8.390;2022-09-01T08:03:12;5.05;;;3.35;;
7338;SDS011;33747;49.524;8.390;2022-09-01T08:05:37;3.80;;;3.17;;
7338;SDS011;33747;49.524;8.390;2022-09-01T08:08:03;6.65;;;3.03;;
7338;SDS011;33747;49.524;8.390;2022-09-01T08:10:29;3.50;;;3.05;;
7338;SDS011;33747;49.524;8.390;2022-09-01T08:12:54;3.00;;;2.70;;
7338;SDS011;33747;49.524;8.390;2022-09-01T08:15:21;8.75;;;2.85;;
7338;SDS011;33747;49.524;8.390;2022-09-01T08:17:46;5.35;;;2.50;;
7338;SDS011;33747;49.524;8.390;2022-09-01T08:20:12;4.40;;;3.00;;
7338;SDS011;33747;49.524;8.390;2022-09-01T08:22:37;5.85;;;3.10;;
7338;SDS011;33747;49.524;8.390;2022-09-01T08:25:07;6.20;;;3.33;;
7338;SDS011;33747;49.524;8.390;2022-09-01T08:27:34;6.97;;;4.00;;
7338;SDS011;33747;49.524;8.390;2022-09-01T08:30:04;4.97;;;3.85;;
7338;SDS011;33747;49.524;8.390;2022-09-01T08:32:30;3.50;;;3.03;;
7338;SDS011;33747;49.524;8.390;2022-09-01T08:34:56;5.25;;;2.92;;
7338;SDS011;33747;49.524;8.390;2022-09-01T08:37:22;7.47;;;4.85;;
7338;SDS011;33747;49.524;8.390;2022-09-01T08:39:47;4.15;;;3.28;;
7338;SDS011;33747;49.524;8.390;2022-09-01T08:45:14;9.15;;;3.78;;
7338;SDS011;33747;49.524;8.390;2022-09-01T08:47:45;12.15;;;6.05;;
7338;SDS011;33747;49.524;8.390;2022-09-01T08:50:12;8.20;;;4.15;;
7338;SDS011;33747;49.524;8.390;2022-09-01T08:52:39;4.45;;;3.70;;
7338;SDS011;33747;49.524;8.390;2022-09-01T08:55:09;12.30;;;4.57;;
7338;SDS011;33747;49.524;8.390;2022-09-01T08:57:41;7.07;;;3.42;;
7338;SDS011;33747;49.524;8.390;2022-09-01T09:00:09;6.43;;;3.90;;
7338;SDS011;33747;49.524;8.390;2022-09-01T09:02:46;5.78;;;3.22;;
7338;SDS011;33747;49.524;8.390;2022-09-01T09:11:09;4.10;;;3.15;;
7338;SDS011;33747;49.524;8.390;2022-09-01T09:16:26;5.82;;;3.42;;
7338;SDS011;33747;49.524;8.390;2022-09-01T09:19:00;10.55;;;4.35;;
7338;SDS011;33747;49.524;8.390;2022-09-01T09:21:29;12.45;;;4.07;;
7338;SDS011;33747;49.524;8.390;2022-09-01T09:23:59;11.13;;;4.05;;
7338;SDS011;33747;49.524;8.390;2022-09-01T09:26:30;5.25;;;4.07;;
7338;SDS011;33747;49.524;8.390;2022-09-01T09:28:55;3.85;;;3.20;;
7338;SDS011;33747;49.524;8.390;2022-09-01T09:31:24;5.82;;;4.15;;
7338;SDS011;33747;49.524;8.390;2022-09-01T09:33:51;4.35;;;3.95;;
7338;SDS011;33747;49.524;8.390;2022-09-01T09:36:18;9.07;;;4.60;;
7338;SDS011;33747;49.524;8.390;2022-09-01T09:38:45;7.78;;;3.45;;
7338;SDS011;33747;49.524;8.390;2022-09-01T09:41:18;6.55;;;3.70;;
7338;SDS011;33747;49.524;8.390;2022-09-01T09:43:46;4.78;;;4.30;;
7338;SDS011;33747;49.524;8.390;2022-09-01T09:51:48;11.43;;;4.20;;
7338;SDS011;33747;49.524;8.390;2022-09-01T09:54:28;6.07;;;3.97;;
7338;SDS011;33747;49.524;8.390;2022-09-01T09:59:34;9.75;;;3.90;;
7338;SDS011;33747;49.524;8.390;2022-09-01T10:04:57;4.95;;;4.05;;
7338;SDS011;33747;49.524;8.390;2022-09-01T10:09:50;7.38;;;3.60;;
7338;SDS011;33747;49.524;8.390;2022-09-01T10:12:17;5.53;;;3.45;;
7338;SDS011;33747;49.524;8.390;2022-09-01T10:14:45;4.80;;;4.30;;
7338;SDS011;33747;49.524;8.390;2022-09-01T10:17:15;6.78;;;4.00;;
7338;SDS011;33747;49.524;8.390;2022-09-01T10:19:58;6.95;;;3.67;;
7338;SDS011;33747;49.524;8.390;2022-09-01T10:22:32;5.18;;;4.28;;
7338;SDS011;33747;49.524;8.390;2022-09-01T10:24:59;6.53;;;4.40;;
7338;SDS011;33747;49.524;8.390;2022-09-01T10:27:26;4.45;;;3.75;;
7338;SDS011;33747;49.524;8.390;2022-09-01T10:29:56;4.90;;;4.13;;
7338;SDS011;33747;49.524;8.390;2022-09-01T10:32:38;9.25;;;3.70;;
7338;SDS011;33747;49.524;8.390;2022-09-01T10:35:18;3.85;;;3.08;;
7338;SDS011;33747;49.524;8.390;2022-09-01T10:37:45;5.60;;;3.10;;
7338;SDS011;33747;49.524;8.390;2022-09-01T10:42:40;8.35;;;4.32;;
7338;SDS011;33747;49.524;8.390;2022-09-01T10:45:14;5.63;;;3.63;;
7338;SDS011;33747;49.524;8.390;2022-09-01T10:53:36;4.32;;;3.25;;
7338;SDS011;33747;49.524;8.390;2022-09-01T10:56:37;6.05;;;3.70;;
7338;SDS011;33747;49.524;8.390;2022-09-01T11:04:04;3.30;;;3.00;;
7338;SDS011;33747;49.524;8.390;2022-09-01T11:09:24;11.10;;;3.58;;
7338;SDS011;33747;49.524;8.390;2022-09-01T11:12:00;8.73;;;4.18;;
7338;SDS011;33747;49.524;8.390;2022-09-01T11:14:57;3.67;;;2.75;;
7338;SDS011;33747;49.524;8.390;2022-09-01T11:17:25;7.40;;;3.47;;
7338;SDS011;33747;49.524;8.390;2022-09-01T11:19:59;3.72;;;3.30;;
7338;SDS011;33747;49.524;8.390;2022-09-01T11:22:30;11.23;;;2.47;;
7338;SDS011;33747;49.524;8.390;2022-09-01T11:30:42;4.15;;;3.10;;
7338;SDS011;33747;49.524;8.390;2022-09-01T11:33:26;5.70;;;2.10;;
7338;SDS011;33747;49.524;8.390;2022-09-01T11:36:11;5.72;;;3.08;;
7338;SDS011;33747;49.524;8.390;2022-09-01T11:43:55;6.00;;;2.00;;
7338;SDS011;33747;49.524;8.390;2022-09-01T11:46:26;2.05;;;1.80;;
7338;SDS011;33747;49.524;8.390;2022-09-01T11:48:53;3.47;;;1.88;;
7338;SDS011;33747;49.524;8.390;2022-09-01T11:51:19;6.32;;;3.40;;
7338;SDS011;33747;49.524;8.390;2022-09-01T11:53:45;4.00;;;2.67;;
7338;SDS011;33747;49.524;8.390;2022-09-01T11:56:13;5.22;;;3.90;;
7338;SDS011;33747;49.524;8.390;2022-09-01T11:58:42;4.90;;;2.35;;
7338;SDS011;33747;49.524;8.390;2022-09-01T12:01:41;3.22;;;2.15;;
7338;SDS011;33747;49.524;8.390;2022-09-01T12:04:23;2.17;;;1.98;;
7338;SDS011;33747;49.524;8.390;2022-09-01T12:06:57;6.43;;;2.70;;
7338;SDS011;33747;49.524;8.390;2022-09-01T12:09:35;3.63;;;3.00;;
7338;SDS011;33747;49.524;8.390;2022-09-01T12:12:02;4.97;;;2.83;;
7338;SDS011;33747;49.524;8.390;2022-09-01T12:14:29;2.92;;;2.30;;
7338;SDS011;33747;49.524;8.390;2022-09-01T12:16:57;2.88;;;2.00;;
7338;SDS011;33747;49.524;8.390;2022-09-01T12:19:26;3.67;;;2.22;;
7338;SDS011;33747;49.524;8.390;2022-09-01T12:22:00;2.70;;;2.10;;
7338;SDS011;33747;49.524;8.390;2022-09-01T12:24:30;4.82;;;2.10;;
7338;SDS011;33747;49.524;8.390;2022-09-01T12:26:58;2.25;;;2.05;;
7338;SDS011;33747;49.524;8.390;2022-09-01T12:29:25;1.80;;;1.52;;
7338;SDS011;33747;49.524;8.390;2022-09-01T12:31:51;2.83;;;2.20;;
7338;SDS011;33747;49.524;8.390;2022-09-01T12:37:08;5.30;;;2.08;;
7338;SDS011;33747;49.524;8.390;2022-09-01T12:39:40;2.30;;;2.10;;
7338;SDS011;33747;49.524;8.390;2022-09-01T12:49:57;2.35;;;1.73;;
7338;SDS011;33747;49.524;8.390;2022-09-01T12:52:24;2.40;;;1.90;;
7338;SDS011;33747;49.524;8.390;2022-09-01T12:54:51;2.80;;;2.00;;
7338;SDS011;33747;49.524;8.390;2022-09-01T13:00:13;5.70;;;2.08;;
7338;SDS011;33747;49.524;8.390;2022-09-01T13:08:11;3.53;;;2.03;;
7338;SDS011;33747;49.524;8.390;2022-09-01T13:13:05;1.83;;;1.67;;
7338;SDS011;33747;49.524;8.390;2022-09-01T13:15:31;2.63;;;2.00;;
7338;SDS011;33747;49.524;8.390;2022-09-01T13:17:57;2.28;;;1.90;;
7338;SDS011;33747;49.524;8.390;2022-09-01T13:20:23;2.33;;;1.77;;
7338;SDS011;33747;49.524;8.390;2022-09-01T13:22:48;4.70;;;1.70;;
7338;SDS011;33747;49.524;8.390;2022-09-01T13:25:15;2.10;;;1.77;;
7338;SDS011;33747;49.524;8.390;2022-09-01T13:27:44;1.80;;;1.70;;
7338;SDS011;33747;49.524;8.390;2022-09-01T13:30:11;2.92;;;1.60;;
7338;SDS011;33747;49.524;8.390;2022-09-01T13:32:44;1.95;;;1.63;;
7338;SDS011;33747;49.524;8.390;2022-09-01T13:35:12;3.83;;;1.98;;
7338;SDS011;33747;49.524;8.390;2022-09-01T13:37:39;3.75;;;1.80;;
7338;SDS011;33747;49.524;8.390;2022-09-01T13:40:05;2.25;;;1.48;;
7338;SDS011;33747;49.524;8.390;2022-09-01T13:42:32;3.35;;;1.98;;
7338;SDS011;33747;49.524;8.390;2022-09-01T13:44:57;2.17;;;1.58;;
7338;SDS011;33747;49.524;8.390;2022-09-01T13:47:23;1.92;;;1.83;;
7338;SDS011;33747;49.524;8.390;2022-09-01T13:49:48;1.85;;;1.75;;
7338;SDS011;33747;49.524;8.390;2022-09-01T13:52:14;1.88;;;1.75;;
7338;SDS011;33747;49.524;8.390;2022-09-01T13:54:39;2.13;;;1.90;;
7338;SDS011;33747;49.524;8.390;2022-09-01T13:57:06;2.03;;;1.90;;
7338;SDS011;33747;49.524;8.390;2022-09-01T13:59:31;2.80;;;1.98;;
7338;SDS011;33747;49.524;8.390;2022-09-01T14:01:57;2.33;;;2.03;;
7338;SDS011;33747;49.524;8.390;2022-09-01T14:04:22;2.38;;;1.95;;
7338;SDS011;33747;49.524;8.390;2022-09-01T14:06:47;1.88;;;1.77;;
7338;SDS011;33747;49.524;8.390;2022-09-01T14:09:13;3.28;;;2.33;;
7338;SDS011;33747;49.524;8.390;2022-09-01T14:11:39;4.57;;;1.75;;
7338;SDS011;33747;49.524;8.390;2022-09-01T14:14:05;1.73;;;1.60;;
7338;SDS011;33747;49.524;8.390;2022-09-01T14:16:30;5.55;;;2.03;;
7338;SDS011;33747;49.524;8.390;2022-09-01T14:18:56;2.40;;;2.10;;
7338;SDS011;33747;49.524;8.390;2022-09-01T14:21:23;2.75;;;1.90;;
7338;SDS011;33747;49.524;8.390;2022-09-01T14:23:49;2.00;;;1.58;;
7338;SDS011;33747;49.524;8.390;2022-09-01T14:26:14;2.63;;;2.20;;
7338;SDS011;33747;49.524;8.390;2022-09-01T14:28:40;3.38;;;1.90;;
7338;SDS011;33747;49.524;8.390;2022-09-01T14:31:12;5.53;;;2.30;;
7338;SDS011;33747;49.524;8.390;2022-09-01T14:33:39;2.95;;;2.08;;
7338;SDS011;33747;49.524;8.390;2022-09-01T14:36:05;5.65;;;2.00;;
7338;SDS011;33747;49.524;8.390;2022-09-01T14:38:31;2.50;;;1.65;;
7338;SDS011;33747;49.524;8.390;2022-09-01T14:40:57;11.88;;;2.00;;
7338;SDS011;33747;49.524;8.390;2022-09-01T14:43:22;4.63;;;1.80;;
7338;SDS011;33747;49.524;8.390;2022-09-01T14:45:49;1.70;;;1.60;;
7338;SDS011;33747;49.524;8.390;2022-09-01T14:48:30;1.95;;;1.60;;
7338;SDS011;33747;49.524;8.390;2022-09-01T14:50:57;2.55;;;1.73;;
7338;SDS011;33747;49.524;8.390;2022-09-01T14:53:23;2.20;;;1.77;;
7338;SDS011;33747;49.524;8.390;2022-09-01T14:55:48;3.47;;;2.05;;
7338;SDS011;33747;49.524;8.390;2022-09-01T14:58:13;2.22;;;1.80;;
7338;SDS011;33747;49.524;8.390;2022-09-01T15:00:39;2.92;;;1.83;;
7338;SDS011;33747;49.524;8.390;2022-09-01T15:03:05;2.50;;;1.77;;
7338;SDS011;33747;49.524;8.390;2022-09-01T15:05:31;1.70;;;1.60;;
7338;SDS011;33747;49.524;8.390;2022-09-01T15:07:57;2.00;;;1.88;;
7338;SDS011;33747;49.524;8.390;2022-09-01T15:10:23;1.95;;;1.75;;
7338;SDS011;33747;49.524;8.390;2022-09-01T15:12:49;1.92;;;1.80;;
7338;SDS011;33747;49.524;8.390;2022-09-01T15:15:15;1.50;;;1.40;;
7338;SDS011;33747;49.524;8.390;2022-09-01T15:17:40;4.05;;;1.83;;
7338;SDS011;33747;49.524;8.390;2022-09-01T15:20:06;7.03;;;1.80;;
7338;SDS011;33747;49.524;8.390;2022-09-01T15:22:50;2.78;;;2.22;;
7338;SDS011;33747;49.524;8.390;2022-09-01T15:25:15;2.15;;;1.80;;
7338;SDS011;33747;49.524;8.390;2022-09-01T15:27:41;4.97;;;2.30;;
7338;SDS011;33747;49.524;8.390;2022-09-01T15:30:07;3.65;;;2.30;;
7338;SDS011;33747;49.524;8.390;2022-09-01T15:32:38;2.13;;;1.90;;
7338;SDS011;33747;49.524;8.390;2022-09-01T15:35:05;2.50;;;2.15;;
7338;SDS011;33747;49.524;8.390;2022-09-01T15:37:31;8.00;;;2.17;;
7338;SDS011;33747;49.524;8.390;2022-09-01T15:39:56;3.70;;;1.77;;
7338;SDS011;33747;49.524;8.390;2022-09-01T15:42:22;2.25;;;1.90;;
7338;SDS011;33747;49.524;8.390;2022-09-01T15:44:48;2.38;;;2.08;;
7338;SDS011;33747;49.524;8.390;2022-09-01T15:47:13;3.50;;;1.70;;
7338;SDS011;33747;49.524;8.390;2022-09-01T15:49:38;3.53;;;2.30;;
7338;SDS011;33747;49.524;8.390;2022-09-01T15:52:04;2.22;;;1.95;;
7338;SDS011;33747;49.524;8.390;2022-09-01T15:54:29;3.25;;;2.00;;
7338;SDS011;33747;49.524;8.390;2022-09-01T15:56:55;4.22;;;1.80;;
7338;SDS011;33747;49.524;8.390;2022-09-01T15:59:20;2.08;;;1.88;;
7338;SDS011;33747;49.524;8.390;2022-09-01T16:01:45;1.92;;;1.60;;
7338;SDS011;33747;49.524;8.390;2022-09-01T16:04:12;1.92;;;1.80;;
7338;SDS011;33747;49.524;8.390;2022-09-01T16:06:39;2.55;;;1.88;;
7338;SDS011;33747;49.524;8.390;2022-09-01T16:09:06;1.60;;;1.50;;
7338;SDS011;33747;49.524;8.390;2022-09-01T16:11:32;2.85;;;1.75;;
7338;SDS011;33747;49.524;8.390;2022-09-01T16:13:58;2.30;;;1.73;;
7338;SDS011;33747;49.524;8.390;2022-09-01T16:24:25;4.95;;;1.55;;
7338;SDS011;33747;49.524;8.390;2022-09-01T16:26:51;3.38;;;1.52;;
7338;SDS011;33747;49.524;8.390;2022-09-01T16:29:20;2.50;;;1.58;;
7338;SDS011;33747;49.524;8.390;2022-09-01T16:31:53;3.88;;;1.60;;
7338;SDS011;33747;49.524;8.390;2022-09-01T16:34:19;1.70;;;1.40;;
7338;SDS011;33747;49.524;8.390;2022-09-01T16:53:00;2.67;;;1.50;;